Time;durP1;ratioP1;P1;durP2;ratioP2;P2;SDS_P1;SDS_P2;PMS_P1;PMS_P2;Temp;Humidity;BMP_temperature;BMP_pressure;BME280_temperature;BME280_humidity;BME280_pressure;Samples;Min_cycle;Max_cycle;Signal;HPM_P1;HPM_P2
2020/12/18 00:01:29;;;;;;;27.17;18.83;;;;;;;13.28;40.42;95390.78;5078869;28;20063;-40
2020/12/18 00:03:58;;;;;;;29.20;19.23;;;;;;;13.02;41.14;95384.94;5075827;28;20052;-40
2020/12/18 00:06:32;;;;;;;29.05;17.75;;;;;;;13.56;39.98;95389.16;5075656;28;20048;-40
2020/12/18 00:08:59;;;;;;;24.83;16.95;;;;;;;13.73;39.32;95383.44;5075867;28;20075;-41
2020/12/18 00:11:28;;;;;;;25.25;18.00;;;;;;;13.96;38.78;95380.00;5075541;28;20044;-40
2020/12/18 00:13:55;;;;;;;26.05;17.35;;;;;;;13.29;40.59;95389.72;5075707;28;20052;-40
2020/12/18 00:16:23;;;;;;;25.13;16.85;;;;;;;13.66;39.82;95390.88;5075451;28;20055;-40
2020/12/18 00:18:51;;;;;;;25.52;17.95;;;;;;;13.47;40.33;95388.97;5075687;28;20048;-41
2020/12/18 00:21:22;;;;;;;29.98;18.75;;;;;;;13.19;41.37;95390.56;5075352;28;20078;-40
2020/12/18 00:23:50;;;;;;;29.38;17.85;;;;;;;13.31;40.59;95390.22;5075634;28;20052;-40
2020/12/18 00:26:18;;;;;;;30.92;19.38;;;;;;;13.34;40.91;95387.03;5075236;28;20056;-41
2020/12/18 00:28:46;;;;;;;27.05;18.40;;;;;;;14.15;38.77;95377.41;5088139;28;20451;-40
2020/12/18 00:31:14;;;;;;;28.13;19.33;;;;;;;13.88;39.21;95385.91;5081368;28;20043;-40
2020/12/18 00:33:41;;;;;;;24.67;17.63;;;;;;;13.47;39.28;95381.09;5075073;28;20052;-40
2020/12/18 00:36:11;;;;;;;26.00;17.50;;;;;;;14.70;37.41;95385.59;5074564;28;20052;-40
2020/12/18 00:38:38;;;;;;;28.65;18.25;;;;;;;14.36;37.67;95380.53;5076627;28;20044;-40
2020/12/18 00:41:05;;;;;;;26.83;18.17;;;;;;;14.10;38.38;95372.22;5094879;28;20044;-40
2020/12/18 00:43:34;;;;;;;30.42;20.00;;;;;;;14.05;38.54;95386.22;5095578;28;20063;-41
2020/12/18 00:46:04;;;;;;;30.23;19.73;;;;;;;13.42;40.17;95383.78;5095134;28;20055;-40
2020/12/18 00:48:31;;;;;;;31.88;19.92;;;;;;;13.53;39.84;95384.44;5095363;28;20050;-40
2020/12/18 00:50:59;;;;;;;30.58;19.38;;;;;;;12.81;41.86;95388.78;5081330;28;20047;-40
2020/12/18 00:53:26;;;;;;;29.83;19.45;;;;;;;12.95;41.38;95389.72;5072926;28;20375;-40
2020/12/18 00:55:53;;;;;;;30.10;19.98;;;;;;;13.15;41.04;95389.53;5077501;28;20047;-41
2020/12/18 00:58:20;;;;;;;28.35;19.25;;;;;;;13.27;40.90;95381.31;5094700;28;20043;-40
2020/12/18 01:00:47;;;;;;;25.00;16.90;;;;;;;13.33;40.61;95395.19;5077190;28;20055;-40
2020/12/18 01:03:20;;;;;;;26.75;17.88;;;;;;;13.43;39.89;95398.47;5077474;28;20048;-40
2020/12/18 01:05:47;;;;;;;26.00;16.30;;;;;;;13.46;39.87;95397.13;5095140;28;20060;-40
2020/12/18 01:08:19;;;;;;;24.70;16.00;;;;;;;14.34;37.96;95390.56;5095069;28;20047;-41
2020/12/18 01:10:46;;;;;;;26.67;17.23;;;;;;;13.87;38.45;95389.59;5073744;28;20040;-40
2020/12/18 01:13:13;;;;;;;23.83;16.15;;;;;;;13.99;38.21;95392.59;5074032;28;20055;-40
2020/12/18 01:15:41;;;;;;;26.13;16.45;;;;;;;14.11;38.13;95385.09;5073831;28;20044;-40
2020/12/18 01:18:24;;;;;;;25.77;16.58;;;;;;;13.53;39.56;95387.06;5057176;28;20044;-40
2020/12/18 01:20:51;;;;;;;27.95;16.50;;;;;;;14.22;38.14;95395.44;5068793;28;20063;-40
2020/12/18 01:23:19;;;;;;;25.33;16.83;;;;;;;14.18;38.19;95395.25;5077426;28;20052;-40
2020/12/18 01:25:51;;;;;;;26.38;17.13;;;;;;;14.09;38.47;95387.22;5077173;28;20355;-40
2020/12/18 01:28:18;;;;;;;23.92;16.63;;;;;;;13.62;39.14;95395.94;5085506;28;20083;-41
2020/12/18 01:30:46;;;;;;;29.42;19.20;;;;;;;14.01;37.94;95390.44;5057074;28;20471;-40
2020/12/18 01:33:13;;;;;;;26.33;18.27;;;;;;;13.44;39.17;95397.41;5074872;28;20340;-40
2020/12/18 01:35:40;;;;;;;31.48;18.98;;;;;;;13.80;38.52;95387.31;5057013;28;20052;-40
2020/12/18 01:38:09;;;;;;;30.88;19.08;;;;;;;14.00;38.00;95378.38;5057035;28;20060;-40
2020/12/18 01:40:39;;;;;;;28.77;19.05;;;;;;;13.26;39.37;95385.78;5056256;28;20052;-41
2020/12/18 01:43:09;;;;;;;29.80;18.67;;;;;;;13.14;40.07;95387.97;5075329;28;20052;-40
2020/12/18 01:45:39;;;;;;;34.75;19.98;;;;;;;12.83;40.58;95387.47;5076952;28;20063;-40
2020/12/18 01:48:11;;;;;;;27.88;18.42;;;;;;;13.21;39.62;95383.19;5077034;28;20059;-40
2020/12/18 01:50:49;;;;;;;28.50;18.27;;;;;;;13.07;40.21;95386.75;5094989;28;20078;-40
2020/12/18 01:53:17;;;;;;;27.10;17.52;;;;;;;13.13;40.29;95385.63;5056853;28;20363;-40
2020/12/18 01:56:05;;;;;;;28.27;17.27;;;;;;;12.74;41.01;95389.09;5056865;28;20056;-40
2020/12/18 01:58:36;;;;;;;26.80;17.67;;;;;;;12.90;41.34;95385.28;5056551;28;20076;-40
2020/12/18 02:01:06;;;;;;;27.85;16.83;;;;;;;13.64;39.41;95390.38;5057483;28;20056;-40
2020/12/18 02:03:40;;;;;;;26.60;16.88;;;;;;;13.06;40.69;95385.16;5076992;28;20047;-40
2020/12/18 02:06:17;;;;;;;25.55;16.98;;;;;;;12.80;40.88;95387.22;5079973;28;20051;-40
2020/12/18 02:08:53;;;;;;;27.83;17.52;;;;;;;12.86;41.04;95386.91;5080581;28;20059;-41
2020/12/18 02:11:36;;;;;;;25.88;16.63;;;;;;;13.03;40.75;95383.09;5075437;28;20036;-41
2020/12/18 02:14:13;;;;;;;23.58;16.23;;;;;;;12.82;41.50;95380.66;5060185;28;20045;-40
2020/12/18 02:16:41;;;;;;;23.15;15.45;;;;;;;13.10;40.50;95381.72;5060335;28;20044;-40
2020/12/18 02:19:15;;;;;;;24.73;16.50;;;;;;;12.71;40.97;95380.97;5028984;28;20059;-40
2020/12/18 02:21:43;;;;;;;25.80;16.95;;;;;;;13.08;39.67;95377.81;5049003;28;20048;-40
2020/12/18 02:24:25;;;;;;;23.42;15.48;;;;;;;12.93;39.93;95381.34;5080110;28;20048;-40
2020/12/18 02:26:56;;;;;;;21.50;14.43;;;;;;;13.12;39.82;95379.59;5079428;28;20032;-40
2020/12/18 02:29:24;;;;;;;21.60;14.90;;;;;;;13.11;39.78;95372.00;5061793;28;20048;-40
2020/12/18 02:32:02;;;;;;;23.70;15.02;;;;;;;12.58;40.59;95379.78;5059810;28;20040;-40
2020/12/18 02:34:44;;;;;;;21.95;14.40;;;;;;;13.00;39.79;95384.41;5060086;28;20059;-40
2020/12/18 02:37:20;;;;;;;20.27;14.23;;;;;;;12.68;40.17;95378.91;5060044;28;20057;-40
2020/12/18 02:39:47;;;;;;;20.95;13.93;;;;;;;13.19;38.86;95387.16;5059863;28;20044;-40
2020/12/18 02:42:29;;;;;;;19.45;14.02;;;;;;;13.11;39.36;95387.75;5070778;28;20055;-40
2020/12/18 02:44:56;;;;;;;20.80;13.90;;;;;;;13.40;39.05;95385.13;5079719;28;20054;-40
2020/12/18 02:47:41;;;;;;;22.70;14.05;;;;;;;12.45;40.84;95389.03;5097774;28;20366;-40
2020/12/18 02:50:22;;;;;;;20.00;13.70;;;;;;;13.01;40.04;95388.63;5079743;28;20446;-40
2020/12/18 02:52:52;;;;;;;20.23;13.50;;;;;;;13.14;39.31;95381.94;5079596;28;20122;-40
2020/12/18 02:55:38;;;;;;;19.77;13.32;;;;;;;13.37;38.99;95380.44;5082309;28;20293;-41
2020/12/18 02:58:21;;;;;;;18.48;13.05;;;;;;;13.09;39.04;95380.16;5069879;28;20053;-40
2020/12/18 03:00:52;;;;;;;19.90;13.57;;;;;;;12.57;39.68;95389.50;5059701;28;20087;-40
2020/12/18 03:03:21;;;;;;;19.42;14.23;;;;;;;12.78;39.07;95379.63;5073015;28;20048;-39
2020/12/18 03:05:51;;;;;;;20.02;14.02;;;;;;;13.02;38.72;95386.78;5079341;28;20044;-39
2020/12/18 03:08:29;;;;;;;19.02;13.27;;;;;;;12.82;39.62;95382.50;5079407;28;20052;-40
2020/12/18 03:11:05;;;;;;;21.50;14.82;;;;;;;12.24;40.38;95383.16;5075938;28;20044;-41
2020/12/18 03:13:32;;;;;;;21.27;14.93;;;;;;;12.56;40.54;95390.56;5058931;28;20052;-40
2020/12/18 03:16:00;;;;;;;20.98;14.50;;;;;;;12.26;41.30;95378.44;5058987;28;20056;-40
2020/12/18 03:18:41;;;;;;;19.38;12.82;;;;;;;12.33;41.06;95388.59;5077141;28;20049;-40
2020/12/18 03:21:12;;;;;;;21.15;13.60;;;;;;;12.34;41.10;95375.22;5059405;28;20048;-40
2020/12/18 03:23:46;;;;;;;19.50;12.25;;;;;;;12.59;39.98;95376.09;5076771;28;20052;-40
2020/12/18 03:26:36;;;;;;;18.27;13.38;;;;;;;12.91;39.29;95378.97;5081076;28;20048;-40
2020/12/18 03:29:11;;;;;;;18.30;13.07;;;;;;;13.03;39.14;95385.72;5078421;28;20082;-40
2020/12/18 03:31:39;;;;;;;19.38;13.60;;;;;;;12.55;39.96;95396.06;5065714;28;20040;-40
2020/12/18 03:34:06;;;;;;;19.95;13.05;;;;;;;13.37;37.95;95381.22;5078799;28;20362;-40
2020/12/18 03:36:43;;;;;;;19.92;13.65;;;;;;;13.28;38.17;95388.16;5078607;28;20055;-40
2020/12/18 03:39:13;;;;;;;34.75;22.40;;;;;;;12.91;38.32;95388.69;5096666;28;20050;-41
2020/12/18 03:41:50;;;;;;;32.95;22.08;;;;;;;13.53;37.38;95390.50;5078442;28;20052;-40
2020/12/18 03:44:18;;;;;;;27.08;18.15;;;;;;;13.62;37.76;95392.50;5078643;28;20055;-39
2020/12/18 03:46:46;;;;;;;29.50;18.88;;;;;;;12.57;39.69;95393.94;5078626;28;20048;-40
2020/12/18 03:49:21;;;;;;;24.27;16.27;;;;;;;12.53;39.45;95392.94;5096281;28;20052;-40
2020/12/18 03:51:53;;;;;;;19.88;13.57;;;;;;;13.06;37.91;95390.41;5092219;28;20458;-39
2020/12/18 03:54:28;;;;;;;18.83;13.05;;;;;;;13.32;37.28;95383.91;5069364;28;20505;-40
2020/12/18 03:57:13;;;;;;;18.25;12.88;;;;;;;13.26;37.14;95395.50;5096271;28;20466;-40
2020/12/18 04:00:07;;;;;;;16.77;12.13;;;;;;;13.28;37.29;95396.03;5080072;28;20387;-40
2020/12/18 04:02:43;;;;;;;18.00;12.15;;;;;;;12.82;38.48;95396.38;5078094;28;20347;-40
2020/12/18 04:05:12;;;;;;;19.15;12.32;;;;;;;12.62;38.88;95397.31;5078198;28;20039;-39
2020/12/18 04:07:41;;;;;;;18.15;11.80;;;;;;;13.15;37.64;95399.25;5078354;28;20051;-40
2020/12/18 04:10:20;;;;;;;16.33;11.57;;;;;;;12.33;39.52;95392.00;5078137;28;20056;-40
2020/12/18 04:13:06;;;;;;;30.05;18.63;;;;;;;12.30;39.99;95395.19;5057839;28;20052;-40
2020/12/18 04:15:33;;;;;;;24.77;16.63;;;;;;;12.61;38.89;95397.59;5058370;28;20052;-40
2020/12/18 04:18:00;;;;;;;23.63;14.52;;;;;;;12.45;39.55;95409.22;5058421;28;20056;-40
2020/12/18 04:20:27;;;;;;;38.03;21.35;;;;;;;12.13;40.19;95414.94;5057946;28;20059;-40
2020/12/18 04:23:14;;;;;;;15.65;10.80;;;;;;;13.38;37.45;95413.50;5089665;28;20055;-41
2020/12/18 04:26:04;;;;;;;13.93;9.73;;;;;;;13.16;37.55;95409.47;5087236;28;20085;-40
2020/12/18 04:28:31;;;;;;;14.35;10.30;;;;;;;12.77;38.91;95409.56;5066262;28;20382;-40
2020/12/18 04:30:59;;;;;;;15.55;10.50;;;;;;;13.50;36.71;95417.31;5075376;28;20040;-40
2020/12/18 04:33:26;;;;;;;15.10;10.45;;;;;;;12.74;38.07;95415.31;5061980;28;20054;-40
2020/12/18 04:35:53;;;;;;;16.88;10.90;;;;;;;13.02;37.68;95421.69;5057461;28;20078;-40
2020/12/18 04:38:27;;;;;;;18.13;12.07;;;;;;;12.92;37.41;95408.63;5057685;28;20076;-40
2020/12/18 04:41:04;;;;;;;17.95;11.85;;;;;;;12.33;39.28;95420.84;5059221;28;20470;-40
2020/12/18 04:43:41;;;;;;;16.58;11.02;;;;;;;12.39;38.86;95412.94;5073430;28;20052;-40
2020/12/18 04:46:17;;;;;;;17.92;12.20;;;;;;;12.74;38.45;95420.56;5041470;28;20048;-40
2020/12/18 04:48:47;;;;;;;17.40;11.30;;;;;;;12.88;38.05;95405.00;5074890;28;20135;-39
2020/12/18 04:51:24;;;;;;;17.27;11.82;;;;;;;12.45;38.84;95411.84;5073565;28;20036;-40
2020/12/18 04:54:00;;;;;;;17.38;12.40;;;;;;;12.20;39.80;95416.19;5076547;28;20040;-39
2020/12/18 04:56:38;;;;;;;18.65;12.13;;;;;;;12.04;40.47;95420.75;5077119;28;20059;-40
2020/12/18 04:59:14;;;;;;;21.75;12.82;;;;;;;11.83;41.06;95418.47;5077424;28;20458;-40
2020/12/18 05:02:20;;;;;;;17.75;11.85;;;;;;;11.84;41.65;95425.28;5058534;28;20071;-40
2020/12/18 05:04:53;;;;;;;18.00;11.50;;;;;;;11.84;41.76;95418.19;5077421;28;20044;-40
2020/12/18 05:07:43;;;;;;;17.73;11.90;;;;;;;11.87;41.17;95424.72;5077594;28;20738;-40
2020/12/18 05:10:10;;;;;;;18.88;13.30;;;;;;;11.66;41.17;95422.16;5077120;28;20052;-39
2020/12/18 05:13:04;;;;;;;16.35;12.82;;;;;;;11.59;41.07;95423.50;5050735;28;20079;-39
2020/12/18 05:16:01;;;;;;;15.43;10.98;;;;;;;11.91;39.67;95420.53;5059833;28;20052;-37
2020/12/18 05:18:52;;;;;;;15.35;11.02;;;;;;;11.71;40.00;95429.22;5058898;28;20044;-38
2020/12/18 05:21:44;;;;;;;16.40;12.32;;;;;;;11.72;39.70;95426.34;5057267;28;20060;-37
2020/12/18 05:24:26;;;;;;;17.88;12.07;;;;;;;11.82;40.00;95430.00;5043011;28;20079;-37
2020/12/18 05:26:54;;;;;;;17.00;12.43;;;;;;;12.01;39.92;95441.47;5040752;28;20131;-38
2020/12/18 05:29:22;;;;;;;19.67;12.77;;;;;;;12.92;37.83;95448.00;5040696;28;20053;-38
2020/12/18 05:32:12;;;;;;;18.60;12.25;;;;;;;12.39;38.73;95439.16;5009851;28;20048;-38
2020/12/18 05:34:57;;;;;;;19.83;13.43;;;;;;;12.06;39.47;95436.19;5057083;28;20048;-39
2020/12/18 05:37:42;;;;;;;22.67;13.60;;;;;;;12.15;39.82;95441.66;5057197;28;20048;-39
2020/12/18 05:40:21;;;;;;;22.02;13.15;;;;;;;12.60;38.23;95440.63;5056111;28;20059;-40
2020/12/18 05:43:14;;;;;;;21.42;13.55;;;;;;;12.17;39.72;95442.16;5070600;28;20071;-41
2020/12/18 05:45:44;;;;;;;20.13;12.93;;;;;;;11.62;41.24;95441.28;5059627;28;20052;-39
2020/12/18 05:48:29;;;;;;;18.80;11.60;;;;;;;11.73;40.75;95448.88;5089136;28;20493;-40
2020/12/18 05:51:08;;;;;;;17.02;11.57;;;;;;;11.82;41.10;95450.97;5062863;28;20056;-41
2020/12/18 05:53:38;;;;;;;15.82;10.57;;;;;;;11.68;41.04;95451.47;5080314;28;20044;-39
2020/12/18 05:56:32;;;;;;;17.10;11.48;;;;;;;11.60;41.42;95449.41;5080384;28;20058;-38
2020/12/18 05:59:10;;;;;;;15.15;10.85;;;;;;;11.80;40.85;95450.44;5065094;28;20060;-41
2020/12/18 06:01:50;;;;;;;16.83;12.02;;;;;;;11.53;41.63;95454.16;5060844;28;20056;-39
2020/12/18 06:04:38;;;;;;;19.55;14.32;;;;;;;11.39;42.09;95458.34;5078031;28;20044;-39
2020/12/18 06:07:16;;;;;;;16.35;12.05;;;;;;;11.41;42.33;95454.41;5078162;28;20465;-40
2020/12/18 06:10:09;;;;;;;16.85;11.93;;;;;;;11.34;42.94;95466.22;5061921;28;20044;-38
2020/12/18 06:13:02;;;;;;;18.42;12.75;;;;;;;11.48;42.20;95469.88;5098136;28;20044;-39
2020/12/18 06:15:44;;;;;;;19.60;13.95;;;;;;;11.51;41.74;95469.34;5098143;28;20042;-39
2020/12/18 06:18:16;;;;;;;15.77;11.43;;;;;;;12.34;39.81;95467.00;5063530;28;20055;-38
2020/12/18 06:20:44;;;;;;;20.23;12.82;;;;;;;12.15;40.04;95468.66;5080433;28;20434;-39
2020/12/18 06:23:15;;;;;;;16.98;11.90;;;;;;;12.07;40.69;95469.22;5080186;28;20050;-39
2020/12/18 06:26:13;;;;;;;16.10;11.15;;;;;;;11.94;40.59;95467.94;5080100;28;20442;-39
2020/12/18 06:29:07;;;;;;;21.30;12.63;;;;;;;13.32;37.78;95475.81;5045257;28;20060;-39
2020/12/18 06:31:54;;;;;;;22.60;14.73;;;;;;;12.44;39.05;95474.00;5097954;28;20044;-39
2020/12/18 06:34:51;;;;;;;21.45;14.32;;;;;;;13.01;38.14;95477.06;5059924;28;20048;-39
2020/12/18 06:37:34;;;;;;;21.55;14.63;;;;;;;12.63;39.13;95482.06;5060006;28;20045;-40
2020/12/18 06:40:31;;;;;;;24.38;17.95;;;;;;;12.01;40.54;95483.41;5077023;28;20059;-39
2020/12/18 06:43:34;;;;;;;23.73;15.70;;;;;;;12.52;38.86;95480.56;5071212;28;20087;-40
2020/12/18 06:46:27;;;;;;;19.17;12.88;;;;;;;12.60;38.57;95485.22;5079669;28;20048;-39
2020/12/18 06:49:12;;;;;;;23.10;15.85;;;;;;;12.67;39.05;95485.69;5097646;28;20047;-39
2020/12/18 06:51:58;;;;;;;21.08;14.07;;;;;;;12.70;38.34;95481.75;5097278;28;20050;-39
2020/12/18 06:54:34;;;;;;;19.85;13.95;;;;;;;12.53;38.27;95482.91;5079683;28;20059;-38
2020/12/18 06:57:22;;;;;;;22.65;15.52;;;;;;;12.48;37.92;95479.50;5079787;28;20438;-38
2020/12/18 06:59:49;;;;;;;21.02;15.27;;;;;;;13.39;36.29;95494.66;5077482;28;20079;-40
2020/12/18 07:02:35;;;;;;;21.60;14.38;;;;;;;12.11;38.72;95470.25;5077185;28;20063;-39
2020/12/18 07:05:02;;;;;;;21.17;14.30;;;;;;;12.35;39.01;95492.16;5075974;28;20051;-39
2020/12/18 07:07:38;;;;;;;23.63;17.08;;;;;;;12.64;37.92;95489.66;5077129;28;20044;-39
2020/12/18 07:10:05;;;;;;;18.45;13.73;;;;;;;12.97;37.58;95488.13;5076035;28;20048;-39
2020/12/18 07:12:32;;;;;;;21.58;14.30;;;;;;;12.68;37.88;95479.38;5076634;28;20055;-39
2020/12/18 07:15:05;;;;;;;20.52;13.98;;;;;;;12.45;39.08;95490.53;5076833;28;20055;-40
2020/12/18 07:17:32;;;;;;;19.58;13.88;;;;;;;13.40;37.38;95484.94;5076876;28;20363;-43
2020/12/18 07:19:59;;;;;;;20.75;13.85;;;;;;;12.52;38.93;95485.78;5076935;28;20040;-39
2020/12/18 07:22:28;;;;;;;20.58;14.45;;;;;;;11.97;40.17;95491.00;5076332;28;20374;-39
2020/12/18 07:24:55;;;;;;;20.75;13.63;;;;;;;11.96;40.82;95488.63;5080617;28;20052;-39
2020/12/18 07:27:22;;;;;;;20.05;13.75;;;;;;;11.88;41.21;95497.06;5096636;28;20044;-39
2020/12/18 07:29:51;;;;;;;20.10;14.25;;;;;;;11.84;41.11;95490.78;5096521;28;20048;-39
2020/12/18 07:32:18;;;;;;;23.08;15.45;;;;;;;11.70;41.52;95495.75;5096167;28;20047;-39
2020/12/18 07:34:45;;;;;;;22.25;15.00;;;;;;;11.76;41.76;95496.53;5078801;28;20055;-39
2020/12/18 07:37:13;;;;;;;22.02;15.32;;;;;;;11.75;42.19;95498.38;5078837;28;20048;-39
2020/12/18 07:39:41;;;;;;;23.30;15.73;;;;;;;11.77;41.95;95498.09;5096755;28;20046;-39
2020/12/18 07:42:09;;;;;;;22.77;15.38;;;;;;;11.81;42.06;95502.56;5096583;28;20055;-38
2020/12/18 07:44:37;;;;;;;26.63;17.13;;;;;;;11.90;41.35;95510.66;5095786;28;20059;-39
2020/12/18 07:47:04;;;;;;;23.83;16.33;;;;;;;11.85;41.50;95506.22;5096610;28;20043;-39
2020/12/18 07:49:32;;;;;;;27.48;17.90;;;;;;;11.70;42.20;95503.59;5078633;28;20047;-39
2020/12/18 07:52:05;;;;;;;22.95;15.70;;;;;;;11.58;42.83;95509.13;5095874;28;20040;-39
2020/12/18 07:54:32;;;;;;;22.52;14.73;;;;;;;11.81;42.36;95499.97;5078138;28;20082;-39
2020/12/18 07:57:08;;;;;;;23.02;15.93;;;;;;;11.96;42.01;95509.59;5096330;28;20051;-39
2020/12/18 07:59:35;;;;;;;24.35;15.32;;;;;;;12.14;41.51;95511.66;5076348;28;20063;-40
2020/12/18 08:02:02;;;;;;;27.70;17.50;;;;;;;12.04;42.41;95506.44;5075350;28;20049;-39
2020/12/18 08:04:29;;;;;;;25.85;17.02;;;;;;;12.13;42.24;95504.84;5057854;28;20055;-39
2020/12/18 08:06:57;;;;;;;27.70;17.88;;;;;;;12.03;42.07;95497.00;5075933;28;20045;-39
2020/12/18 08:09:24;;;;;;;28.92;18.92;;;;;;;12.26;41.58;95504.28;5058444;28;20049;-39
2020/12/18 08:11:52;;;;;;;28.10;18.33;;;;;;;12.19;41.66;95503.75;5076015;28;20055;-40
2020/12/18 08:14:19;;;;;;;29.13;18.75;;;;;;;12.07;42.29;95505.91;5075306;28;20473;-39
2020/12/18 08:16:47;;;;;;;29.63;18.70;;;;;;;11.90;42.20;95500.19;5075845;28;20471;-39
2020/12/18 08:19:14;;;;;;;31.08;18.20;;;;;;;12.11;42.98;95506.94;5075716;28;20040;-39
2020/12/18 08:21:44;;;;;;;25.17;16.88;;;;;;;12.13;41.81;95499.59;5075657;28;20045;-39
2020/12/18 08:24:37;;;;;;;22.27;16.05;;;;;;;11.94;42.59;95501.22;5075127;28;20082;-38
2020/12/18 08:27:22;;;;;;;24.90;16.35;;;;;;;11.91;42.45;95509.63;5058031;28;20056;-39
2020/12/18 08:29:50;;;;;;;26.85;16.67;;;;;;;11.79;42.79;95515.16;5074539;28;20056;-39
2020/12/18 08:32:28;;;;;;;28.90;17.05;;;;;;;12.17;41.80;95510.31;5075473;28;20363;-39
2020/12/18 08:35:06;;;;;;;24.20;17.13;;;;;;;12.05;41.97;95513.25;5075367;28;20051;-39
2020/12/18 08:37:34;;;;;;;28.70;17.73;;;;;;;12.03;42.49;95507.50;5075470;28;20356;-40
2020/12/18 08:40:01;;;;;;;28.83;19.52;;;;;;;12.17;41.62;95510.31;5075512;28;20056;-39
2020/12/18 08:42:28;;;;;;;29.48;18.92;;;;;;;12.14;41.58;95510.84;5057895;28;20053;-39
2020/12/18 08:44:59;;;;;;;29.17;19.02;;;;;;;12.21;42.62;95522.63;5095097;28;20039;-44
2020/12/18 08:47:28;;;;;;;32.33;18.95;;;;;;;12.43;42.34;95513.63;5095641;28;20044;-40
2020/12/18 08:49:56;;;;;;;31.75;19.83;;;;;;;12.35;41.26;95513.13;5077837;28;20052;-39
2020/12/18 08:52:28;;;;;;;28.55;18.27;;;;;;;12.40;41.35;95511.53;5095424;28;20048;-39
2020/12/18 08:55:08;;;;;;;27.35;18.20;;;;;;;12.42;41.32;95517.31;5095060;28;20378;-39
2020/12/18 08:57:38;;;;;;;23.60;16.98;;;;;;;12.47;40.51;95498.91;5091873;28;20040;-39
2020/12/18 09:00:20;;;;;;;24.95;18.65;;;;;;;12.58;41.17;95508.31;5075262;28;20048;-39
2020/12/18 09:02:53;;;;;;;26.25;17.45;;;;;;;12.39;41.57;95502.09;5091700;28;20048;-39
2020/12/18 09:05:23;;;;;;;26.25;17.73;;;;;;;12.48;41.37;95505.72;5095285;28;20047;-39
2020/12/18 09:07:53;;;;;;;25.73;17.58;;;;;;;12.79;40.88;95501.91;5095330;28;20051;-39
2020/12/18 09:10:36;;;;;;;26.48;18.13;;;;;;;12.66;40.96;95498.03;5095246;28;20071;-39
2020/12/18 09:13:21;;;;;;;26.38;17.38;;;;;;;12.50;41.53;95495.78;5094112;28;20048;-39
2020/12/18 09:16:02;;;;;;;23.27;17.33;;;;;;;12.43;41.50;95492.66;5099337;28;20052;-39
2020/12/18 09:18:30;;;;;;;24.48;17.15;;;;;;;12.49;41.31;95486.31;5099354;28;20063;-39
2020/12/18 09:21:08;;;;;;;23.23;16.00;;;;;;;12.87;41.52;95496.06;5099464;28;20043;-39
2020/12/18 09:23:35;;;;;;;24.67;17.20;;;;;;;13.10;40.82;95491.19;5099147;28;20063;-44
2020/12/18 09:26:04;;;;;;;23.75;17.92;;;;;;;13.13;40.37;95480.13;5098480;28;20362;-40
2020/12/18 09:28:39;;;;;;;25.58;18.13;;;;;;;13.32;39.86;95481.06;5089661;28;20052;-40
2020/12/18 09:31:07;;;;;;;29.55;19.90;;;;;;;13.36;40.27;95471.56;5099235;28;20055;-40
2020/12/18 09:33:37;;;;;;;29.50;20.50;;;;;;;13.57;40.27;95477.44;5098966;28;20366;-40
2020/12/18 09:36:07;;;;;;;325.10;184.98;;;;;;;13.51;40.59;95476.66;5098112;28;20048;-40
2020/12/18 09:38:44;;;;;;;52.30;31.08;;;;;;;13.23;41.31;95480.06;5098994;28;20055;-40
2020/12/18 09:41:16;;;;;;;31.13;21.90;;;;;;;13.35;40.25;95472.63;5098962;28;20109;-39
2020/12/18 09:43:44;;;;;;;31.73;23.20;;;;;;;13.43;40.63;95485.16;5098955;28;20130;-40
2020/12/18 09:46:11;;;;;;;33.00;22.52;;;;;;;13.33;40.32;95480.00;5098334;28;20059;-39
2020/12/18 09:48:40;;;;;;;33.60;23.05;;;;;;;13.10;40.62;95476.22;5098885;28;20067;-40
2020/12/18 09:51:07;;;;;;;31.48;23.33;;;;;;;13.00;41.17;95483.38;5098897;28;20048;-39
2020/12/18 09:53:34;;;;;;;31.63;22.63;;;;;;;13.01;41.02;95472.63;5098823;28;20362;-39
2020/12/18 09:56:02;;;;;;;29.85;22.55;;;;;;;13.15;40.80;95478.81;5098347;28;20059;-39
2020/12/18 09:58:29;;;;;;;28.17;21.83;;;;;;;13.27;40.57;95473.22;5087602;28;20679;-39
2020/12/18 10:00:56;;;;;;;33.13;22.42;;;;;;;13.27;40.95;95465.34;5078158;28;20348;-39
2020/12/18 10:03:23;;;;;;;35.80;23.63;;;;;;;13.00;41.18;95463.16;5081006;28;20052;-40
2020/12/18 10:05:50;;;;;;;37.30;23.80;;;;;;;12.98;41.63;95457.41;5077225;28;20069;-39
2020/12/18 10:08:18;;;;;;;34.40;22.92;;;;;;;13.11;41.33;95461.25;5078027;28;20048;-40
2020/12/18 10:10:46;;;;;;;37.40;24.15;;;;;;;12.94;41.58;95451.91;5078223;28;20048;-38
2020/12/18 10:13:14;;;;;;;34.67;24.00;;;;;;;13.16;41.25;95454.13;5077993;28;20074;-40
2020/12/18 10:15:41;;;;;;;34.38;23.65;;;;;;;13.37;41.10;95453.97;5077707;28;20055;-39
2020/12/18 10:18:09;;;;;;;34.17;24.30;;;;;;;13.39;40.80;95442.13;5078328;28;20052;-39
2020/12/18 10:20:36;;;;;;;40.63;24.25;;;;;;;13.57;40.86;95436.19;5078314;28;20447;-39
2020/12/18 10:23:03;;;;;;;35.08;23.85;;;;;;;13.64;40.31;95448.19;5077974;28;20048;-40
2020/12/18 10:25:30;;;;;;;33.97;23.42;;;;;;;13.52;40.81;95436.19;5094742;28;20052;-39
2020/12/18 10:27:57;;;;;;;36.08;25.52;;;;;;;13.51;40.59;95439.88;5091691;28;20056;-39
2020/12/18 10:30:24;;;;;;;37.72;25.75;;;;;;;13.39;40.70;95434.25;5077823;28;20055;-39
2020/12/18 10:32:51;;;;;;;38.55;25.65;;;;;;;13.30;41.18;95433.28;5077915;28;20044;-39
2020/12/18 10:35:19;;;;;;;38.80;26.60;;;;;;;13.34;41.06;95434.31;5077357;28;20055;-39
2020/12/18 10:37:47;;;;;;;39.92;27.23;;;;;;;13.36;40.85;95432.19;5077686;28;20565;-39
2020/12/18 10:40:15;;;;;;;39.10;26.83;;;;;;;13.39;40.73;95431.63;5077600;28;20048;-39
2020/12/18 10:42:43;;;;;;;39.63;26.20;;;;;;;13.33;41.26;95438.00;5077539;28;20059;-39
2020/12/18 10:45:10;;;;;;;39.85;27.33;;;;;;;13.30;41.37;95433.28;5091659;28;20048;-40
2020/12/18 10:47:37;;;;;;;43.38;27.88;;;;;;;13.31;40.91;95424.34;5097501;28;20048;-39
2020/12/18 10:50:05;;;;;;;38.13;25.75;;;;;;;13.73;40.75;95420.22;5097678;28;20048;-40
2020/12/18 10:52:32;;;;;;;35.28;25.98;;;;;;;13.56;40.60;95421.47;5097632;28;20051;-39
2020/12/18 10:54:59;;;;;;;34.33;25.20;;;;;;;13.68;40.88;95418.44;5097339;28;20052;-40
2020/12/18 10:57:26;;;;;;;38.08;26.58;;;;;;;13.62;40.56;95418.78;5081096;28;20052;-39
2020/12/18 10:59:53;;;;;;;33.58;23.52;;;;;;;13.47;40.51;95419.72;5097393;28;20063;-39
2020/12/18 11:02:20;;;;;;;37.45;25.48;;;;;;;13.50;41.29;95413.91;5097369;28;20063;-39
2020/12/18 11:04:47;;;;;;;36.83;25.17;;;;;;;13.40;41.33;95425.31;5096962;28;20052;-39
2020/12/18 11:07:14;;;;;;;37.63;26.55;;;;;;;13.43;41.12;95414.25;5097070;28;20442;-40
2020/12/18 11:09:41;;;;;;;35.35;25.60;;;;;;;13.56;41.01;95410.97;5097296;28;20059;-39
2020/12/18 11:12:08;;;;;;;33.15;23.60;;;;;;;13.74;41.07;95408.66;5097152;28;20054;-39
2020/12/18 11:14:37;;;;;;;28.45;22.05;;;;;;;13.73;40.26;95409.72;5097054;28;20052;-39
2020/12/18 11:17:04;;;;;;;34.33;25.20;;;;;;;13.58;40.93;95400.19;5096898;28;20047;-39
2020/12/18 11:19:31;;;;;;;36.97;25.33;;;;;;;13.66;40.84;95404.03;5097130;28;20059;-40
2020/12/18 11:21:58;;;;;;;30.52;23.25;;;;;;;13.40;41.20;95396.41;5096996;28;20359;-39
2020/12/18 11:24:25;;;;;;;37.45;25.48;;;;;;;13.54;41.40;95399.97;5095911;28;20367;-37
2020/12/18 11:26:53;;;;;;;37.30;26.40;;;;;;;13.71;41.18;95399.50;5085110;28;20354;-39
2020/12/18 11:29:21;;;;;;;33.03;24.60;;;;;;;13.85;40.41;95402.22;5082504;28;20051;-38
2020/12/18 11:31:48;;;;;;;34.70;25.92;;;;;;;13.87;40.34;95395.63;5084629;28;20462;-38
2020/12/18 11:34:15;;;;;;;31.10;23.90;;;;;;;14.08;40.64;95390.13;5086302;28;20382;-38
2020/12/18 11:36:42;;;;;;;36.35;25.48;;;;;;;13.92;40.85;95386.13;5084259;28;20056;-39
2020/12/18 11:39:09;;;;;;;37.20;26.55;;;;;;;13.92;40.30;95400.03;5085060;28;20049;-38
2020/12/18 11:41:36;;;;;;;33.25;24.55;;;;;;;14.10;40.12;95388.78;5080897;28;20052;-38
2020/12/18 11:44:03;;;;;;;484.65;313.45;;;;;;;14.14;39.85;95389.78;5084886;28;20060;-38